Архив погоды в Новоаннинском

Метеограмма Новоаннинский
Пятница, 27 Апреля
Время местн. Темп Ветер Видим Явления Облачность нижн/средн/верх Атм. давл. Влжн Точка росы ВНГО R Сост. почвы Tg s
Напр Скр Прв ур.ст ур.м изм
09:00 +14.8° С-В 2 - 20 км - облачно с прояснениями 754 763 +1.4 44% +2.8° 1 км - - - -
06:00 +10.2° С 2 - 20 км - переменная облачность 753 761 +1.1 71% +5.1° 1.5 км - Влажная (без луж) - -
03:00 +10.2° Ю,Ю-З 1 - 20 км - переменная облачность 752 760 +1.2 79% +6.7° 1.5 км - - - -
00:00 +15.9° С-З 3 - 20 км - преимущественно облачно 750 759 +2 58% +7.6° 1 км - - - -
Четверг, 26 Апреля
Время местн. Темп Ветер Видим Явления Облачность нижн/средн/верх Атм. давл. Влжн Точка росы ВНГО R Сост. почвы Tg s
Напр Скр Прв ур.ст ур.м изм
21:00 +16.6° Ю 2 - 20 км облака развиваются {гроза} преимущественно облачно 748 757 +1.7 73% +11.7° 1 км - - - -
18:00 +19.7° З,Ю-З 5 - 20 км гроза без осадков облачно с прояснениями 747 755 +0.7 62% +12.1° 1 км - - - -
15:00 +26.2° З,Ю-З 9 19 20 км - облачно с прояснениями 746 754 -1.7 28% +6.3° 1 км - - - -
12:00 +21.1° Ю-З 6 13 20 км - преимущественно облачно 748 756 -1.4 45% +8.6° 1 км - - - -
09:00 +17.3° Ю-З 4 - 20 км - облачно 749 758 -0.1 48% +6.3° 1 км - - - -
06:00 +12.4° Ю 2 - 20 км - облачно с прояснениями 749 758 -0.3 77% +8.5° 1 км 0 Сухая (без трещин) +10° -
03:00 +12.2° Ю 2 - 20 км - облачно 749 758 -0.4 80% +8.8° 1 км - - - -
00:00 +12.6° Ю 3 - 20 км - облачно 750 759 -0.5 72% +7.7° 1 км - - - -
Среда, 25 Апреля
Время местн. Темп Ветер Видим Явления Облачность нижн/средн/верх Атм. давл. Влжн Точка росы ВНГО R Сост. почвы Tg s
Напр Скр Прв ур.ст ур.м изм
21:00 +13.9° Ю 3 - 20 км - облачно 750 759 +0.2 61% +6.5° 1 км - - - -
18:00 +17.1° Ю,Ю-З 3 - 20 км - облачно с прояснениями 750 759 -0.9 34% +1.2° 1 км 0 - - -
15:00 +18° Ю,Ю-З 3 - 20 км - облачно с прояснениями 751 760 -0.7 29% -0.3° 1 км - - - -
12:00 +16.1° З,Ю-З 3 - 20 км - переменная облачность 752 760 -0.7 35% +0.6° 1 км - - - -
09:00 +12.1° З,Ю-З 3 - 20 км - облачно 752 761 +0.7 53% +2.9° 1 км - - - -
06:00 +5.5° Ю 2 - 20 км - облачно 752 761 +0.1 60% -1.6° 1 км - Влажная (без луж) - -
03:00 +7° Ю 2 - 20 км - облачно 752 761 -0.8 46% -3.8° 1 км - - - -
00:00 +7.3° Ю 2 - 20 км - облачно 752 761 -0.4 44% -4.2° 1 км - - - -
Вторник, 24 Апреля
Время местн. Темп Ветер Видим Явления Облачность нижн/средн/верх Атм. давл. Влжн Точка росы ВНГО R Сост. почвы Tg s
Напр Скр Прв ур.ст ур.м изм
21:00 +7.4° Ю 1 - 20 км - облачно 753 762 +0.2 42% -4.5° 1 км - - - -
18:00 +12.6° З 3 - 20 км - облачно с прояснениями 753 761 -0.7 25% -7° 1 км - - - -
15:00 +12.7° З,С-З 4 - 20 км - переменная облачность 753 762 -0.5 24% -7.3° 1 км - - - -
12:00 +11.2° С-З 4 - 20 км - переменная облачность 754 762 +0.1 25% -8.1° 1 км - - - -
09:00 +7.8° З,С-З 2 - 20 км - ясно 754 763 +0.4 40% -4.9° более 2.5 км - - - -
06:00 -1.5° Ю-З 2 - 20 км - ясно 753 763 +0.8 80% -4.5° более 2.5 км - Замерзшая - -